sensor_id;sensor_type;location;lat;lon;timestamp;P1;durP1;ratioP1;P2;durP2;ratioP2
10497;SDS011;5296;51.060;13.750;2023-10-31T00:02:07;4.55;;;3.97;;
10497;SDS011;5296;51.060;13.750;2023-10-31T00:07:10;5.40;;;4.00;;
10497;SDS011;5296;51.060;13.750;2023-10-31T00:12:12;10.93;;;4.55;;
10497;SDS011;5296;51.060;13.750;2023-10-31T00:17:14;5.68;;;4.53;;
10497;SDS011;5296;51.060;13.750;2023-10-31T00:22:15;6.65;;;4.35;;
10497;SDS011;5296;51.060;13.750;2023-10-31T00:27:17;4.75;;;4.13;;
10497;SDS011;5296;51.060;13.750;2023-10-31T00:32:19;5.30;;;4.07;;
10497;SDS011;5296;51.060;13.750;2023-10-31T00:37:22;6.18;;;4.45;;
10497;SDS011;5296;51.060;13.750;2023-10-31T00:42:24;5.38;;;4.50;;
10497;SDS011;5296;51.060;13.750;2023-10-31T00:47:25;6.38;;;5.00;;
10497;SDS011;5296;51.060;13.750;2023-10-31T00:52:27;6.65;;;4.40;;
10497;SDS011;5296;51.060;13.750;2023-10-31T00:57:29;7.35;;;4.55;;
10497;SDS011;5296;51.060;13.750;2023-10-31T01:02:31;6.30;;;4.47;;
10497;SDS011;5296;51.060;13.750;2023-10-31T01:07:33;7.32;;;4.80;;
10497;SDS011;5296;51.060;13.750;2023-10-31T01:12:36;6.03;;;4.80;;
10497;SDS011;5296;51.060;13.750;2023-10-31T01:17:38;6.25;;;4.80;;
10497;SDS011;5296;51.060;13.750;2023-10-31T01:22:40;5.50;;;4.63;;
10497;SDS011;5296;51.060;13.750;2023-10-31T01:27:41;5.80;;;4.82;;
10497;SDS011;5296;51.060;13.750;2023-10-31T01:32:44;7.93;;;5.18;;
10497;SDS011;5296;51.060;13.750;2023-10-31T01:37:46;6.25;;;4.88;;
10497;SDS011;5296;51.060;13.750;2023-10-31T01:42:48;6.95;;;5.38;;
10497;SDS011;5296;51.060;13.750;2023-10-31T01:47:50;6.15;;;5.00;;
10497;SDS011;5296;51.060;13.750;2023-10-31T01:52:52;6.85;;;5.28;;
10497;SDS011;5296;51.060;13.750;2023-10-31T01:57:54;6.40;;;5.22;;
10497;SDS011;5296;51.060;13.750;2023-10-31T02:02:56;6.65;;;5.32;;
10497;SDS011;5296;51.060;13.750;2023-10-31T02:07:59;6.70;;;5.78;;
10497;SDS011;5296;51.060;13.750;2023-10-31T02:13:10;7.07;;;5.32;;
10497;SDS011;5296;51.060;13.750;2023-10-31T02:18:16;6.03;;;5.15;;
10497;SDS011;5296;51.060;13.750;2023-10-31T02:23:17;7.43;;;5.43;;
10497;SDS011;5296;51.060;13.750;2023-10-31T02:28:19;6.93;;;5.35;;
10497;SDS011;5296;51.060;13.750;2023-10-31T02:33:21;7.32;;;5.45;;
10497;SDS011;5296;51.060;13.750;2023-10-31T02:38:23;7.18;;;5.20;;
10497;SDS011;5296;51.060;13.750;2023-10-31T02:43:25;7.32;;;5.40;;
10497;SDS011;5296;51.060;13.750;2023-10-31T02:48:26;7.50;;;6.22;;
10497;SDS011;5296;51.060;13.750;2023-10-31T02:53:28;7.80;;;7.00;;
10497;SDS011;5296;51.060;13.750;2023-10-31T02:58:30;8.43;;;7.63;;
10497;SDS011;5296;51.060;13.750;2023-10-31T03:03:31;10.32;;;7.90;;
10497;SDS011;5296;51.060;13.750;2023-10-31T03:08:34;8.70;;;7.78;;
10497;SDS011;5296;51.060;13.750;2023-10-31T03:13:35;9.55;;;8.32;;
10497;SDS011;5296;51.060;13.750;2023-10-31T03:18:37;9.60;;;8.60;;
10497;SDS011;5296;51.060;13.750;2023-10-31T03:23:39;9.82;;;8.40;;
10497;SDS011;5296;51.060;13.750;2023-10-31T03:28:40;10.07;;;9.07;;
10497;SDS011;5296;51.060;13.750;2023-10-31T03:33:44;9.90;;;9.00;;
10497;SDS011;5296;51.060;13.750;2023-10-31T03:38:45;11.38;;;10.20;;
10497;SDS011;5296;51.060;13.750;2023-10-31T03:43:47;10.77;;;9.73;;
10497;SDS011;5296;51.060;13.750;2023-10-31T03:48:49;11.70;;;10.70;;
10497;SDS011;5296;51.060;13.750;2023-10-31T03:53:51;11.30;;;10.30;;
10497;SDS011;5296;51.060;13.750;2023-10-31T03:58:53;11.10;;;10.00;;
10497;SDS011;5296;51.060;13.750;2023-10-31T04:03:54;9.70;;;8.68;;
10497;SDS011;5296;51.060;13.750;2023-10-31T04:08:56;7.72;;;6.93;;
10497;SDS011;5296;51.060;13.750;2023-10-31T04:13:58;6.97;;;6.28;;
10497;SDS011;5296;51.060;13.750;2023-10-31T04:18:59;6.30;;;5.63;;
10497;SDS011;5296;51.060;13.750;2023-10-31T04:24:01;6.03;;;5.35;;
10497;SDS011;5296;51.060;13.750;2023-10-31T04:29:03;5.57;;;4.82;;
10497;SDS011;5296;51.060;13.750;2023-10-31T04:34:04;5.50;;;4.90;;
10497;SDS011;5296;51.060;13.750;2023-10-31T04:39:06;5.47;;;4.75;;
10497;SDS011;5296;51.060;13.750;2023-10-31T04:44:08;4.18;;;3.88;;
10497;SDS011;5296;51.060;13.750;2023-10-31T04:49:09;5.07;;;4.15;;
10497;SDS011;5296;51.060;13.750;2023-10-31T04:54:11;4.40;;;4.00;;
10497;SDS011;5296;51.060;13.750;2023-10-31T04:59:13;3.72;;;3.42;;
10497;SDS011;5296;51.060;13.750;2023-10-31T05:04:14;7.78;;;3.60;;
10497;SDS011;5296;51.060;13.750;2023-10-31T05:09:16;3.78;;;3.40;;
10497;SDS011;5296;51.060;13.750;2023-10-31T05:14:19;3.40;;;3.08;;
10497;SDS011;5296;51.060;13.750;2023-10-31T05:19:21;3.63;;;2.97;;
10497;SDS011;5296;51.060;13.750;2023-10-31T05:24:23;2.83;;;2.33;;
10497;SDS011;5296;51.060;13.750;2023-10-31T05:29:24;2.58;;;2.38;;
10497;SDS011;5296;51.060;13.750;2023-10-31T05:34:26;2.10;;;1.90;;
10497;SDS011;5296;51.060;13.750;2023-10-31T05:39:28;1.80;;;1.70;;
10497;SDS011;5296;51.060;13.750;2023-10-31T05:44:29;2.45;;;1.35;;
10497;SDS011;5296;51.060;13.750;2023-10-31T05:49:31;1.50;;;1.40;;
10497;SDS011;5296;51.060;13.750;2023-10-31T05:54:32;2.08;;;1.40;;
10497;SDS011;5296;51.060;13.750;2023-10-31T05:59:34;2.25;;;1.20;;
10497;SDS011;5296;51.060;13.750;2023-10-31T06:04:36;1.23;;;1.15;;
10497;SDS011;5296;51.060;13.750;2023-10-31T06:09:40;1.23;;;1.10;;
10497;SDS011;5296;51.060;13.750;2023-10-31T06:14:41;1.17;;;0.98;;
10497;SDS011;5296;51.060;13.750;2023-10-31T06:19:43;1.75;;;0.90;;
10497;SDS011;5296;51.060;13.750;2023-10-31T06:24:47;0.80;;;0.80;;
10497;SDS011;5296;51.060;13.750;2023-10-31T06:29:48;0.90;;;0.90;;
10497;SDS011;5296;51.060;13.750;2023-10-31T06:35:11;0.65;;;0.65;;
10497;SDS011;5296;51.060;13.750;2023-10-31T06:40:12;0.85;;;0.75;;
10497;SDS011;5296;51.060;13.750;2023-10-31T06:45:14;1.00;;;0.70;;
10497;SDS011;5296;51.060;13.750;2023-10-31T06:50:16;0.80;;;0.80;;
10497;SDS011;5296;51.060;13.750;2023-10-31T06:55:21;0.82;;;0.82;;
10497;SDS011;5296;51.060;13.750;2023-10-31T07:00:22;1.05;;;0.90;;
10497;SDS011;5296;51.060;13.750;2023-10-31T07:05:24;0.68;;;0.68;;
10497;SDS011;5296;51.060;13.750;2023-10-31T07:10:26;1.38;;;0.63;;
10497;SDS011;5296;51.060;13.750;2023-10-31T07:15:28;1.08;;;0.70;;
10497;SDS011;5296;51.060;13.750;2023-10-31T07:20:29;1.13;;;0.80;;
10497;SDS011;5296;51.060;13.750;2023-10-31T07:25:31;0.90;;;0.80;;
10497;SDS011;5296;51.060;13.750;2023-10-31T07:30:33;1.60;;;0.80;;
10497;SDS011;5296;51.060;13.750;2023-10-31T07:35:35;0.77;;;0.77;;
10497;SDS011;5296;51.060;13.750;2023-10-31T07:40:36;0.77;;;0.77;;
10497;SDS011;5296;51.060;13.750;2023-10-31T07:45:38;0.82;;;0.80;;
10497;SDS011;5296;51.060;13.750;2023-10-31T07:50:40;2.30;;;0.77;;
10497;SDS011;5296;51.060;13.750;2023-10-31T07:55:42;0.73;;;0.73;;
10497;SDS011;5296;51.060;13.750;2023-10-31T08:00:44;2.97;;;0.57;;
10497;SDS011;5296;51.060;13.750;2023-10-31T08:05:46;0.57;;;0.57;;
10497;SDS011;5296;51.060;13.750;2023-10-31T08:10:47;0.50;;;0.50;;
10497;SDS011;5296;51.060;13.750;2023-10-31T08:15:49;1.60;;;0.70;;
10497;SDS011;5296;51.060;13.750;2023-10-31T08:20:51;0.60;;;0.60;;
10497;SDS011;5296;51.060;13.750;2023-10-31T08:25:53;1.08;;;0.70;;
10497;SDS011;5296;51.060;13.750;2023-10-31T08:30:54;0.40;;;0.40;;
10497;SDS011;5296;51.060;13.750;2023-10-31T08:35:56;0.68;;;0.47;;
10497;SDS011;5296;51.060;13.750;2023-10-31T08:40:58;0.82;;;0.60;;
10497;SDS011;5296;51.060;13.750;2023-10-31T08:46:01;2.10;;;0.70;;
10497;SDS011;5296;51.060;13.750;2023-10-31T08:51:03;0.40;;;0.40;;
10497;SDS011;5296;51.060;13.750;2023-10-31T08:56:05;0.93;;;0.60;;
10497;SDS011;5296;51.060;13.750;2023-10-31T09:01:07;0.68;;;0.65;;
10497;SDS011;5296;51.060;13.750;2023-10-31T09:06:08;0.60;;;0.60;;
10497;SDS011;5296;51.060;13.750;2023-10-31T09:11:10;0.80;;;0.80;;
10497;SDS011;5296;51.060;13.750;2023-10-31T09:16:12;4.68;;;0.90;;
10497;SDS011;5296;51.060;13.750;2023-10-31T09:21:15;0.70;;;0.60;;
10497;SDS011;5296;51.060;13.750;2023-10-31T09:26:16;1.45;;;0.70;;
10497;SDS011;5296;51.060;13.750;2023-10-31T09:31:19;0.70;;;0.70;;
10497;SDS011;5296;51.060;13.750;2023-10-31T09:36:21;1.48;;;0.70;;
10497;SDS011;5296;51.060;13.750;2023-10-31T09:41:23;0.70;;;0.70;;
10497;SDS011;5296;51.060;13.750;2023-10-31T09:46:24;1.02;;;0.50;;
10497;SDS011;5296;51.060;13.750;2023-10-31T09:51:27;1.13;;;0.70;;
10497;SDS011;5296;51.060;13.750;2023-10-31T09:56:29;0.77;;;0.57;;
10497;SDS011;5296;51.060;13.750;2023-10-31T10:01:35;0.60;;;0.60;;
10497;SDS011;5296;51.060;13.750;2023-10-31T10:06:49;0.55;;;0.43;;
10497;SDS011;5296;51.060;13.750;2023-10-31T10:11:52;0.50;;;0.50;;
10497;SDS011;5296;51.060;13.750;2023-10-31T10:16:55;1.67;;;0.50;;
10497;SDS011;5296;51.060;13.750;2023-10-31T10:21:57;0.50;;;0.50;;
10497;SDS011;5296;51.060;13.750;2023-10-31T10:27:00;0.85;;;0.65;;
10497;SDS011;5296;51.060;13.750;2023-10-31T10:32:04;0.98;;;0.90;;
10497;SDS011;5296;51.060;13.750;2023-10-31T10:37:07;1.85;;;0.60;;
10497;SDS011;5296;51.060;13.750;2023-10-31T10:42:10;0.60;;;0.60;;
10497;SDS011;5296;51.060;13.750;2023-10-31T10:47:14;0.50;;;0.50;;
10497;SDS011;5296;51.060;13.750;2023-10-31T10:52:17;0.60;;;0.60;;
10497;SDS011;5296;51.060;13.750;2023-10-31T11:02:56;0.70;;;0.60;;
10497;SDS011;5296;51.060;13.750;2023-10-31T11:07:58;1.52;;;0.50;;
10497;SDS011;5296;51.060;13.750;2023-10-31T11:13:01;1.33;;;0.50;;
10497;SDS011;5296;51.060;13.750;2023-10-31T11:18:02;2.25;;;0.68;;
10497;SDS011;5296;51.060;13.750;2023-10-31T11:23:05;0.50;;;0.50;;
10497;SDS011;5296;51.060;13.750;2023-10-31T11:28:12;0.68;;;0.68;;
10497;SDS011;5296;51.060;13.750;2023-10-31T11:33:20;0.50;;;0.50;;
10497;SDS011;5296;51.060;13.750;2023-10-31T11:38:30;0.60;;;0.60;;
10497;SDS011;5296;51.060;13.750;2023-10-31T11:48:48;0.40;;;0.40;;
10497;SDS011;5296;51.060;13.750;2023-10-31T11:53:54;0.75;;;0.60;;
10497;SDS011;5296;51.060;13.750;2023-10-31T11:59:04;0.70;;;0.70;;
10497;SDS011;5296;51.060;13.750;2023-10-31T12:04:08;1.70;;;0.60;;
10497;SDS011;5296;51.060;13.750;2023-10-31T12:09:10;0.60;;;0.60;;
10497;SDS011;5296;51.060;13.750;2023-10-31T12:14:12;3.92;;;0.70;;
10497;SDS011;5296;51.060;13.750;2023-10-31T12:19:20;1.20;;;0.63;;
10497;SDS011;5296;51.060;13.750;2023-10-31T12:24:22;0.52;;;0.52;;
10497;SDS011;5296;51.060;13.750;2023-10-31T12:29:24;0.50;;;0.50;;
10497;SDS011;5296;51.060;13.750;2023-10-31T12:34:26;0.47;;;0.47;;
10497;SDS011;5296;51.060;13.750;2023-10-31T12:39:27;0.60;;;0.60;;
10497;SDS011;5296;51.060;13.750;2023-10-31T12:44:29;0.70;;;0.70;;
10497;SDS011;5296;51.060;13.750;2023-10-31T12:49:31;1.10;;;0.80;;
10497;SDS011;5296;51.060;13.750;2023-10-31T12:54:35;0.60;;;0.60;;
10497;SDS011;5296;51.060;13.750;2023-10-31T12:59:37;0.65;;;0.63;;
10497;SDS011;5296;51.060;13.750;2023-10-31T13:04:40;0.80;;;0.80;;
10497;SDS011;5296;51.060;13.750;2023-10-31T13:09:42;0.50;;;0.50;;
10497;SDS011;5296;51.060;13.750;2023-10-31T13:14:44;0.60;;;0.60;;
10497;SDS011;5296;51.060;13.750;2023-10-31T13:19:46;0.70;;;0.70;;
10497;SDS011;5296;51.060;13.750;2023-10-31T13:24:48;0.70;;;0.70;;
10497;SDS011;5296;51.060;13.750;2023-10-31T13:29:50;0.60;;;0.60;;
10497;SDS011;5296;51.060;13.750;2023-10-31T13:34:52;2.17;;;1.98;;
10497;SDS011;5296;51.060;13.750;2023-10-31T13:39:53;1.48;;;1.38;;
10497;SDS011;5296;51.060;13.750;2023-10-31T13:44:55;0.90;;;0.82;;
10497;SDS011;5296;51.060;13.750;2023-10-31T13:49:57;0.95;;;0.65;;
10497;SDS011;5296;51.060;13.750;2023-10-31T13:54:59;3.13;;;0.70;;
10497;SDS011;5296;51.060;13.750;2023-10-31T14:00:00;0.95;;;0.70;;
10497;SDS011;5296;51.060;13.750;2023-10-31T14:05:12;2.63;;;0.70;;
10497;SDS011;5296;51.060;13.750;2023-10-31T14:10:15;0.60;;;0.60;;
10497;SDS011;5296;51.060;13.750;2023-10-31T14:15:16;0.73;;;0.73;;
10497;SDS011;5296;51.060;13.750;2023-10-31T14:20:18;0.60;;;0.60;;
10497;SDS011;5296;51.060;13.750;2023-10-31T14:25:20;1.42;;;0.68;;
10497;SDS011;5296;51.060;13.750;2023-10-31T14:30:22;0.80;;;0.80;;
10497;SDS011;5296;51.060;13.750;2023-10-31T14:35:23;0.70;;;0.70;;
10497;SDS011;5296;51.060;13.750;2023-10-31T14:40:25;0.75;;;0.70;;
10497;SDS011;5296;51.060;13.750;2023-10-31T14:45:27;1.08;;;0.98;;
10497;SDS011;5296;51.060;13.750;2023-10-31T14:50:28;1.35;;;0.82;;
10497;SDS011;5296;51.060;13.750;2023-10-31T14:55:30;1.10;;;1.00;;
10497;SDS011;5296;51.060;13.750;2023-10-31T15:00:32;1.30;;;1.20;;
10497;SDS011;5296;51.060;13.750;2023-10-31T15:05:34;1.10;;;0.82;;
10497;SDS011;5296;51.060;13.750;2023-10-31T15:10:35;0.90;;;0.80;;
10497;SDS011;5296;51.060;13.750;2023-10-31T15:15:37;2.55;;;0.70;;
10497;SDS011;5296;51.060;13.750;2023-10-31T15:20:39;0.98;;;0.80;;
10497;SDS011;5296;51.060;13.750;2023-10-31T15:25:41;0.90;;;0.90;;
10497;SDS011;5296;51.060;13.750;2023-10-31T15:30:42;0.80;;;0.80;;
10497;SDS011;5296;51.060;13.750;2023-10-31T15:35:44;2.25;;;0.90;;
10497;SDS011;5296;51.060;13.750;2023-10-31T15:40:48;1.20;;;1.00;;
10497;SDS011;5296;51.060;13.750;2023-10-31T15:45:51;3.10;;;1.20;;
10497;SDS011;5296;51.060;13.750;2023-10-31T15:50:53;1.70;;;1.10;;
10497;SDS011;5296;51.060;13.750;2023-10-31T15:55:54;1.00;;;0.90;;
10497;SDS011;5296;51.060;13.750;2023-10-31T16:00:56;1.25;;;1.15;;
10497;SDS011;5296;51.060;13.750;2023-10-31T16:05:58;1.02;;;0.93;;
10497;SDS011;5296;51.060;13.750;2023-10-31T16:11:00;1.00;;;1.00;;
10497;SDS011;5296;51.060;13.750;2023-10-31T16:16:04;0.75;;;0.75;;
10497;SDS011;5296;51.060;13.750;2023-10-31T16:21:15;1.20;;;1.10;;
10497;SDS011;5296;51.060;13.750;2023-10-31T16:26:20;0.90;;;0.90;;
10497;SDS011;5296;51.060;13.750;2023-10-31T16:31:23;1.00;;;1.00;;
10497;SDS011;5296;51.060;13.750;2023-10-31T16:36:24;1.98;;;1.13;;
10497;SDS011;5296;51.060;13.750;2023-10-31T16:41:26;1.40;;;1.00;;
10497;SDS011;5296;51.060;13.750;2023-10-31T16:46:30;1.13;;;0.98;;
10497;SDS011;5296;51.060;13.750;2023-10-31T16:51:32;1.63;;;1.10;;
10497;SDS011;5296;51.060;13.750;2023-10-31T16:56:34;1.20;;;1.10;;
10497;SDS011;5296;51.060;13.750;2023-10-31T17:01:36;1.60;;;0.93;;
10497;SDS011;5296;51.060;13.750;2023-10-31T17:06:38;1.50;;;1.20;;
10497;SDS011;5296;51.060;13.750;2023-10-31T17:11:39;1.10;;;1.10;;
10497;SDS011;5296;51.060;13.750;2023-10-31T17:16:41;1.30;;;1.00;;
10497;SDS011;5296;51.060;13.750;2023-10-31T17:21:44;2.10;;;1.00;;
10497;SDS011;5296;51.060;13.750;2023-10-31T17:26:46;1.30;;;1.20;;
10497;SDS011;5296;51.060;13.750;2023-10-31T17:31:48;2.22;;;1.20;;
10497;SDS011;5296;51.060;13.750;2023-10-31T17:36:49;1.48;;;0.90;;
10497;SDS011;5296;51.060;13.750;2023-10-31T17:41:51;1.20;;;1.10;;
10497;SDS011;5296;51.060;13.750;2023-10-31T17:46:53;2.28;;;1.45;;
10497;SDS011;5296;51.060;13.750;2023-10-31T17:51:54;1.02;;;1.00;;
10497;SDS011;5296;51.060;13.750;2023-10-31T17:56:56;1.63;;;1.23;;
10497;SDS011;5296;51.060;13.750;2023-10-31T18:01:58;2.97;;;1.23;;
10497;SDS011;5296;51.060;13.750;2023-10-31T18:07:00;1.80;;;1.20;;
10497;SDS011;5296;51.060;13.750;2023-10-31T18:12:02;1.48;;;1.23;;
10497;SDS011;5296;51.060;13.750;2023-10-31T18:17:03;1.40;;;1.30;;
10497;SDS011;5296;51.060;13.750;2023-10-31T18:22:05;2.97;;;1.40;;
10497;SDS011;5296;51.060;13.750;2023-10-31T18:27:07;1.63;;;1.25;;
10497;SDS011;5296;51.060;13.750;2023-10-31T18:32:09;2.80;;;1.30;;
10497;SDS011;5296;51.060;13.750;2023-10-31T18:37:10;1.67;;;1.25;;
10497;SDS011;5296;51.060;13.750;2023-10-31T18:42:12;1.83;;;1.40;;
10497;SDS011;5296;51.060;13.750;2023-10-31T18:47:14;1.42;;;1.30;;
10497;SDS011;5296;51.060;13.750;2023-10-31T18:52:16;2.40;;;1.88;;
10497;SDS011;5296;51.060;13.750;2023-10-31T18:57:17;2.08;;;1.80;;
10497;SDS011;5296;51.060;13.750;2023-10-31T19:02:19;3.03;;;1.92;;
10497;SDS011;5296;51.060;13.750;2023-10-31T19:07:21;2.13;;;1.40;;
10497;SDS011;5296;51.060;13.750;2023-10-31T19:12:23;1.90;;;1.75;;
10497;SDS011;5296;51.060;13.750;2023-10-31T19:17:25;1.33;;;1.23;;
10497;SDS011;5296;51.060;13.750;2023-10-31T19:22:27;3.15;;;1.63;;
10497;SDS011;5296;51.060;13.750;2023-10-31T19:27:29;2.38;;;1.52;;
10497;SDS011;5296;51.060;13.750;2023-10-31T19:32:31;2.88;;;1.67;;
10497;SDS011;5296;51.060;13.750;2023-10-31T19:37:32;2.67;;;1.63;;
10497;SDS011;5296;51.060;13.750;2023-10-31T19:42:34;1.40;;;1.30;;
10497;SDS011;5296;51.060;13.750;2023-10-31T19:47:36;1.35;;;1.10;;
10497;SDS011;5296;51.060;13.750;2023-10-31T19:52:37;2.05;;;1.33;;
10497;SDS011;5296;51.060;13.750;2023-10-31T19:57:39;1.20;;;1.15;;
10497;SDS011;5296;51.060;13.750;2023-10-31T20:02:41;1.83;;;1.25;;
10497;SDS011;5296;51.060;13.750;2023-10-31T20:07:47;1.85;;;1.30;;
10497;SDS011;5296;51.060;13.750;2023-10-31T20:12:49;1.63;;;1.27;;
10497;SDS011;5296;51.060;13.750;2023-10-31T20:17:51;1.60;;;1.20;;
10497;SDS011;5296;51.060;13.750;2023-10-31T20:22:52;1.60;;;1.23;;
10497;SDS011;5296;51.060;13.750;2023-10-31T20:27:54;1.88;;;1.20;;
10497;SDS011;5296;51.060;13.750;2023-10-31T20:32:56;1.75;;;1.50;;
10497;SDS011;5296;51.060;13.750;2023-10-31T20:37:57;3.03;;;1.38;;
10497;SDS011;5296;51.060;13.750;2023-10-31T20:42:59;2.28;;;1.20;;
10497;SDS011;5296;51.060;13.750;2023-10-31T20:48:01;1.55;;;1.13;;
10497;SDS011;5296;51.060;13.750;2023-10-31T20:53:03;1.20;;;1.10;;
10497;SDS011;5296;51.060;13.750;2023-10-31T20:58:06;1.10;;;1.00;;
10497;SDS011;5296;51.060;13.750;2023-10-31T21:03:09;2.38;;;1.20;;
10497;SDS011;5296;51.060;13.750;2023-10-31T21:08:11;2.20;;;1.15;;
10497;SDS011;5296;51.060;13.750;2023-10-31T21:13:13;1.23;;;1.10;;
10497;SDS011;5296;51.060;13.750;2023-10-31T21:18:14;2.45;;;1.00;;
10497;SDS011;5296;51.060;13.750;2023-10-31T21:23:16;2.80;;;1.25;;
10497;SDS011;5296;51.060;13.750;2023-10-31T21:28:18;3.03;;;1.40;;
10497;SDS011;5296;51.060;13.750;2023-10-31T21:33:20;3.00;;;1.10;;
10497;SDS011;5296;51.060;13.750;2023-10-31T21:38:24;1.92;;;1.10;;
10497;SDS011;5296;51.060;13.750;2023-10-31T21:43:26;2.08;;;1.08;;
10497;SDS011;5296;51.060;13.750;2023-10-31T21:48:28;1.75;;;1.05;;
10497;SDS011;5296;51.060;13.750;2023-10-31T21:53:29;1.23;;;1.10;;
10497;SDS011;5296;51.060;13.750;2023-10-31T21:58:31;3.25;;;0.95;;
10497;SDS011;5296;51.060;13.750;2023-10-31T22:03:33;3.95;;;1.30;;
10497;SDS011;5296;51.060;13.750;2023-10-31T22:08:35;1.95;;;1.20;;
10497;SDS011;5296;51.060;13.750;2023-10-31T22:13:38;2.75;;;1.58;;
10497;SDS011;5296;51.060;13.750;2023-10-31T22:18:39;2.47;;;1.00;;
10497;SDS011;5296;51.060;13.750;2023-10-31T22:23:41;2.00;;;1.10;;
10497;SDS011;5296;51.060;13.750;2023-10-31T22:28:43;2.28;;;1.50;;
10497;SDS011;5296;51.060;13.750;2023-10-31T22:33:44;1.38;;;1.15;;
10497;SDS011;5296;51.060;13.750;2023-10-31T22:38:46;1.63;;;1.38;;
10497;SDS011;5296;51.060;13.750;2023-10-31T22:43:48;2.25;;;1.40;;
10497;SDS011;5296;51.060;13.750;2023-10-31T22:48:49;2.55;;;1.00;;
10497;SDS011;5296;51.060;13.750;2023-10-31T22:53:52;4.20;;;1.60;;
10497;SDS011;5296;51.060;13.750;2023-10-31T22:58:54;1.88;;;1.13;;
10497;SDS011;5296;51.060;13.750;2023-10-31T23:03:55;2.40;;;1.10;;
10497;SDS011;5296;51.060;13.750;2023-10-31T23:08:58;2.05;;;1.30;;
10497;SDS011;5296;51.060;13.750;2023-10-31T23:14:11;2.78;;;1.38;;
10497;SDS011;5296;51.060;13.750;2023-10-31T23:19:13;3.15;;;1.35;;
10497;SDS011;5296;51.060;13.750;2023-10-31T23:24:15;1.42;;;1.23;;
10497;SDS011;5296;51.060;13.750;2023-10-31T23:29:16;2.75;;;1.10;;
10497;SDS011;5296;51.060;13.750;2023-10-31T23:34:18;1.98;;;1.45;;
10497;SDS011;5296;51.060;13.750;2023-10-31T23:39:20;1.50;;;1.40;;
10497;SDS011;5296;51.060;13.750;2023-10-31T23:44:21;2.58;;;1.40;;
10497;SDS011;5296;51.060;13.750;2023-10-31T23:49:23;5.45;;;1.58;;
10497;SDS011;5296;51.060;13.750;2023-10-31T23:54:25;1.70;;;1.33;;
10497;SDS011;5296;51.060;13.750;2023-10-31T23:59:26;2.55;;;1.38;;
